Time;durP1;ratioP1;P1;durP2;ratioP2;P2;SDS_P1;SDS_P2;PMS_P1;PMS_P2;Temp;Humidity;BMP_temperature;BMP_pressure;BME280_temperature;BME280_humidity;BME280_pressure;Samples;Min_cycle;Max_cycle;Signal;HPM_P1;HPM_P2
2021/08/01 00:00:41;;;;;;;2.92;1.73;;;;;;;19.83;38.66;100545.75;3579444;40;20057;-78
2021/08/01 00:03:09;;;;;;;3.42;1.90;;;;;;;19.83;38.48;100552.16;3579284;40;20037;-78
2021/08/01 00:05:37;;;;;;;2.30;1.63;;;;;;;19.84;38.55;100545.53;3580082;40;20055;-77
2021/08/01 00:08:06;;;;;;;3.35;2.00;;;;;;;19.85;38.54;100543.59;3572580;40;20586;-78
2021/08/01 00:10:34;;;;;;;3.58;2.00;;;;;;;19.85;38.66;100538.91;3573741;40;20084;-78
2021/08/01 00:13:04;;;;;;;3.33;2.00;;;;;;;19.88;38.20;100546.84;3578918;40;20044;-80
2021/08/01 00:15:32;;;;;;;3.08;1.92;;;;;;;19.86;38.47;100540.63;3579651;40;20057;-78
2021/08/01 00:18:01;;;;;;;2.78;2.03;;;;;;;19.86;38.27;100543.41;3578376;40;20096;-78
2021/08/01 00:20:29;;;;;;;4.18;2.20;;;;;;;19.86;38.40;100545.31;3579222;40;20057;-78
2021/08/01 00:22:58;;;;;;;3.85;2.00;;;;;;;19.86;38.65;100545.31;3578043;40;20037;-77
2021/08/01 00:25:26;;;;;;;2.55;1.73;;;;;;;19.84;38.71;100542.75;3576091;40;20093;-78
2021/08/01 00:27:53;;;;;;;3.15;1.88;;;;;;;19.84;38.40;100542.75;3577755;40;20269;-78
2021/08/01 00:30:23;;;;;;;3.10;2.10;;;;;;;19.84;38.94;100533.59;3579660;40;20305;-77
2021/08/01 00:32:51;;;;;;;4.32;2.53;;;;;;;19.83;39.20;100534.66;3576266;39;20049;-77
2021/08/01 00:35:19;;;;;;;3.95;2.15;;;;;;;19.81;39.02;100523.75;3578925;40;20089;-77
2021/08/01 00:37:47;;;;;;;4.18;2.58;;;;;;;19.80;39.25;100523.94;3573790;40;20037;-78
2021/08/01 00:40:17;;;;;;;3.53;2.30;;;;;;;19.80;39.22;100521.16;3573332;40;20084;-77
2021/08/01 00:42:45;;;;;;;3.67;2.42;;;;;;;19.79;39.11;100522.22;3578102;40;20053;-78
2021/08/01 00:45:14;;;;;;;4.32;2.58;;;;;;;19.79;38.75;100511.97;3577503;40;20110;-78
2021/08/01 00:47:44;;;;;;;4.43;2.70;;;;;;;19.80;38.84;100516.47;3579012;40;20036;-78
2021/08/01 00:50:13;;;;;;;4.20;2.42;;;;;;;19.78;39.38;100518.56;3576353;40;20088;-78
2021/08/01 00:52:46;;;;;;;5.15;2.70;;;;;;;19.77;39.21;100516.84;3574715;40;20407;-78
2021/08/01 00:55:16;;;;;;;4.30;2.45;;;;;;;19.75;38.71;100527.31;3573428;40;20337;-77
2021/08/01 00:57:45;;;;;;;4.00;2.47;;;;;;;19.75;38.82;100520.91;3577530;40;20045;-78
2021/08/01 01:00:21;;;;;;;4.45;2.67;;;;;;;19.75;39.09;100519.00;3576894;40;20048;-78
2021/08/01 01:02:51;;;;;;;3.80;2.47;;;;;;;19.75;39.25;100526.47;3574538;40;20049;-78
2021/08/01 01:05:25;;;;;;;4.88;2.80;;;;;;;19.76;39.61;100523.47;3579933;40;20052;-79
2021/08/01 01:08:02;;;;;;;4.20;2.90;;;;;;;19.75;39.72;100515.38;3568298;40;20291;-78
2021/08/01 01:10:54;;;;;;;3.65;2.35;;;;;;;19.73;39.73;100514.69;3562881;40;20037;-78
2021/08/01 01:13:34;;;;;;;3.50;2.30;;;;;;;19.73;39.32;100517.47;3575922;40;20354;-77
2021/08/01 01:16:02;;;;;;;;;;;;;;;19.44;39.49;100512.91;3575524;40;20053;-78
2021/08/01 01:18:37;;;;;;;3.38;2.22;;;;;;;19.69;39.21;100514.22;3558193;40;19933;-77
2021/08/01 01:21:26;;;;;;;4.90;2.45;;;;;;;19.70;39.68;100513.16;3576146;40;20334;-77
2021/08/01 01:24:00;;;;;;;3.85;2.50;;;;;;;19.70;39.33;100513.16;3564231;40;20056;-78
2021/08/01 01:26:55;;;;;;;3.53;2.67;;;;;;;19.68;39.83;100512.50;3578627;40;20065;-78
2021/08/01 01:29:32;;;;;;;4.60;2.92;;;;;;;19.68;39.26;100515.28;3577069;40;20106;-78
2021/08/01 01:32:06;;;;;;;4.85;2.70;;;;;;;19.66;39.94;100513.78;3578745;40;20026;-77
2021/08/01 01:34:46;;;;;;;3.47;2.50;;;;;;;19.65;39.83;100512.06;3572042;40;20351;-77
2021/08/01 01:37:19;;;;;;;4.32;2.50;;;;;;;19.61;39.84;100508.81;3571034;40;20145;-77
2021/08/01 01:39:52;;;;;;;3.97;2.55;;;;;;;19.56;39.49;100511.34;3579280;40;20061;-78
2021/08/01 01:42:42;;;;;;;4.65;2.80;;;;;;;19.53;39.39;100509.81;3578314;40;20301;-78
2021/08/01 01:45:18;;;;;;;3.72;2.25;;;;;;;19.53;39.97;100517.28;3579175;40;20048;-77
2021/08/01 01:47:49;;;;;;;3.67;2.50;;;;;;;19.47;39.53;100506.97;3577448;40;20112;-78
2021/08/01 01:50:20;;;;;;;3.97;2.60;;;;;;;19.45;40.11;100503.53;3579430;40;20061;-78
2021/08/01 01:52:51;;;;;;;3.88;2.33;;;;;;;19.46;40.19;100510.78;3578923;40;20122;-77
2021/08/01 01:55:23;;;;;;;3.83;2.50;;;;;;;19.43;40.53;100508.44;3578732;40;20059;-78
2021/08/01 01:57:55;;;;;;;3.83;2.35;;;;;;;19.40;40.07;100504.13;3573477;40;20038;-77
2021/08/01 02:00:25;;;;;;;4.68;2.70;;;;;;;19.40;40.56;100509.69;3578332;40;20044;-78
2021/08/01 02:03:03;;;;;;;3.83;2.58;;;;;;;19.39;40.13;100510.72;3578049;40;20120;-78
2021/08/01 02:05:54;;;;;;;4.05;2.72;;;;;;;19.38;40.62;100516.47;3580336;40;20060;-78
2021/08/01 02:08:54;;;;;;;4.28;2.72;;;;;;;19.41;41.28;100516.09;3574858;39;20041;-78
2021/08/01 02:11:42;;;;;;;4.20;2.65;;;;;;;19.39;40.85;100516.28;3574128;40;20128;-77
2021/08/01 02:14:26;;;;;;;4.35;2.50;;;;;;;19.38;40.21;100519.25;3577813;40;20433;-78
2021/08/01 02:16:59;;;;;;;3.80;2.65;;;;;;;19.39;40.92;100519.06;3578537;40;20029;-78
2021/08/01 02:19:31;;;;;;;3.63;2.40;;;;;;;19.36;40.63;100518.56;3576164;40;20047;-78
2021/08/01 02:22:00;;;;;;;4.30;2.80;;;;;;;19.35;40.36;100522.44;3576509;40;20329;-78
2021/08/01 02:24:31;;;;;;;5.10;2.67;;;;;;;19.38;40.43;100516.47;3578032;40;20052;-77
2021/08/01 02:27:00;;;;;;;3.60;2.45;;;;;;;19.34;40.42;100512.41;3578680;40;20080;-77
2021/08/01 02:29:32;;;;;;;3.97;2.55;;;;;;;19.33;40.74;100517.06;3577910;40;20413;-78
2021/08/01 02:32:00;;;;;;;4.22;2.67;;;;;;;19.31;40.34;100513.63;3577375;40;20411;-77
2021/08/01 02:34:33;;;;;;;4.72;3.03;;;;;;;19.29;40.82;100515.75;3577858;40;20052;-77
2021/08/01 02:37:03;;;;;;;4.28;2.90;;;;;;;19.29;41.07;100520.44;3560111;40;20033;-78
2021/08/01 02:39:36;;;;;;;3.97;2.45;;;;;;;19.28;40.79;100516.78;3577847;40;20048;-78
2021/08/01 02:42:06;;;;;;;4.75;2.63;;;;;;;19.28;41.06;100524.25;3578141;40;20057;-78
2021/08/01 02:44:37;;;;;;;4.40;2.78;;;;;;;19.28;41.04;100519.56;3577745;40;20048;-78
2021/08/01 02:47:09;;;;;;;4.25;2.70;;;;;;;19.25;40.87;100524.66;3577126;40;20060;-78
2021/08/01 02:49:41;;;;;;;4.15;2.33;;;;;;;19.23;40.87;100515.69;3578138;40;20044;-78
2021/08/01 02:52:13;;;;;;;4.20;2.75;;;;;;;19.23;41.02;100522.09;3576922;40;20167;-78
2021/08/01 02:54:47;;;;;;;4.57;2.70;;;;;;;19.20;41.29;100514.16;3573628;40;20287;-77
2021/08/01 02:57:16;;;;;;;4.15;2.50;;;;;;;19.19;40.80;100523.53;3585236;39;20189;-77
2021/08/01 02:59:47;;;;;;;4.10;2.40;;;;;;;19.17;40.89;100515.44;3590278;40;20025;-77
2021/08/01 03:02:16;;;;;;;5.43;2.83;;;;;;;19.16;41.42;100519.25;3577042;39;20084;-77
2021/08/01 03:04:53;;;;;;;4.85;3.13;;;;;;;19.15;41.51;100514.75;3577780;40;20059;-77
2021/08/01 03:07:25;;;;;;;4.68;2.55;;;;;;;19.15;40.78;100508.34;3576603;39;20130;-78
2021/08/01 03:09:55;;;;;;;4.30;2.50;;;;;;;19.16;41.33;100515.63;3560145;40;20029;-78
2021/08/01 03:12:49;;;;;;;4.15;2.63;;;;;;;19.11;41.52;100510.66;3576837;40;20080;-77
2021/08/01 03:15:20;;;;;;;3.60;2.45;;;;;;;19.12;41.35;100514.28;3578781;40;20049;-78
2021/08/01 03:17:48;;;;;;;4.90;2.80;;;;;;;19.12;41.27;100514.28;3567235;40;20044;-78
2021/08/01 03:20:19;;;;;;;4.78;2.80;;;;;;;19.13;40.79;100521.53;3581264;40;20124;-78
2021/08/01 03:23:16;;;;;;;4.07;2.83;;;;;;;19.07;40.65;100509.34;3559190;40;20477;-79
2021/08/01 03:26:04;;;;;;;4.00;2.47;;;;;;;19.06;40.88;100513.16;3572267;40;20527;-79
2021/08/01 03:28:34;;;;;;;4.20;2.45;;;;;;;19.03;41.03;100510.78;3577212;40;20037;-78
2021/08/01 03:31:03;;;;;;;3.63;2.22;;;;;;;19.01;41.25;100521.22;3577593;40;20133;-79
2021/08/01 03:33:38;;;;;;;4.15;2.42;;;;;;;19.01;40.79;100523.13;3577886;40;20380;-78
2021/08/01 03:36:06;;;;;;;4.50;3.20;;;;;;;19.00;40.96;100525.03;3577436;40;20045;-78
2021/08/01 03:38:57;;;;;;;5.15;2.30;;;;;;;18.95;40.89;100518.34;3562967;40;20056;-78
2021/08/01 03:41:38;;;;;;;3.28;2.15;;;;;;;18.95;41.47;100521.13;3578708;40;20084;-78
2021/08/01 03:44:11;;;;;;;3.47;2.08;;;;;;;18.93;40.76;100521.34;3577440;39;20131;-78
2021/08/01 03:46:39;;;;;;;4.03;2.30;;;;;;;18.89;40.90;100521.91;3573508;40;20059;-78
2021/08/01 03:49:07;;;;;;;3.88;2.25;;;;;;;18.86;41.11;100523.13;3575277;40;20052;-78
2021/08/01 03:51:35;;;;;;;7.97;2.55;;;;;;;18.85;41.27;100523.38;3576817;40;20033;-78
2021/08/01 03:54:04;;;;;;;5.43;2.45;;;;;;;18.83;41.24;100512.47;3576806;40;20045;-77
2021/08/01 03:56:32;;;;;;;3.95;2.00;;;;;;;18.80;40.65;100519.25;3577151;40;20092;-78
2021/08/01 03:59:01;;;;;;;3.38;1.73;;;;;;;18.80;41.34;100516.47;3575699;40;20143;-78
2021/08/01 04:01:29;;;;;;;4.15;2.17;;;;;;;18.79;41.45;100527.75;3579239;40;20036;-78
2021/08/01 04:03:57;;;;;;;3.70;2.33;;;;;;;18.78;41.49;100534.31;3579564;39;20055;-78
2021/08/01 04:06:25;;;;;;;3.13;1.88;;;;;;;18.76;40.96;100523.44;3579873;40;20033;-78
2021/08/01 04:08:57;;;;;;;4.23;1.90;;;;;;;18.73;40.79;100529.38;3578839;40;20065;-83
2021/08/01 04:11:25;;;;;;;3.08;1.83;;;;;;;18.74;41.35;100531.09;3579775;40;20085;-78
2021/08/01 04:13:53;;;;;;;4.53;2.20;;;;;;;18.74;40.86;100533.00;3579103;40;20088;-79
2021/08/01 04:16:24;;;;;;;3.97;1.95;;;;;;;18.75;41.07;100532.81;3578522;40;20040;-78
2021/08/01 04:18:54;;;;;;;3.40;1.80;;;;;;;18.70;40.97;100528.88;3578415;39;20351;-78
2021/08/01 04:21:22;;;;;;;3.00;1.90;;;;;;;18.70;40.74;100526.97;3579866;40;20357;-78
2021/08/01 04:23:50;;;;;;;3.20;1.85;;;;;;;18.70;40.92;100528.88;3578349;40;20085;-80
2021/08/01 04:26:18;;;;;;;3.47;2.00;;;;;;;18.69;41.21;100525.25;3573091;40;20082;-78
2021/08/01 04:28:46;;;;;;;4.30;2.45;;;;;;;18.69;40.91;100529.97;3587631;39;20065;-78
2021/08/01 04:31:15;;;;;;;3.55;2.13;;;;;;;18.64;41.27;100519.44;3580037;40;20059;-78
2021/08/01 04:33:44;;;;;;;5.45;2.50;;;;;;;18.65;41.18;100523.94;3579666;40;20045;-78
2021/08/01 04:36:16;;;;;;;3.58;2.17;;;;;;;18.59;41.34;100526.63;3579637;40;20110;-78
2021/08/01 04:38:44;;;;;;;3.70;2.20;;;;;;;18.60;41.38;100517.25;3578749;40;20056;-77
2021/08/01 04:41:12;;;;;;;4.60;2.72;;;;;;;18.58;41.14;100519.34;3579584;40;20063;-81
2021/08/01 04:43:40;;;;;;;5.35;2.78;;;;;;;18.56;41.07;100529.75;3576009;40;20357;-79
2021/08/01 04:46:10;;;;;;;6.70;3.38;;;;;;;18.52;40.69;100521.00;3573556;40;20052;-78
2021/08/01 04:48:38;;;;;;;5.50;3.20;;;;;;;18.50;41.04;100533.31;3576882;40;20065;-79
2021/08/01 04:51:08;;;;;;;5.55;3.25;;;;;;;18.48;41.31;100533.50;3579000;40;20057;-79
2021/08/01 04:53:36;;;;;;;5.03;3.38;;;;;;;18.45;41.10;100534.72;3574050;40;20041;-78
2021/08/01 04:56:08;;;;;;;6.05;3.72;;;;;;;18.44;41.01;100529.41;3577920;40;20040;-81
2021/08/01 04:58:37;;;;;;;5.45;3.30;;;;;;;18.36;41.06;100515.66;3579102;39;20056;-78
2021/08/01 05:01:11;;;;;;;5.20;3.22;;;;;;;18.38;41.36;100519.06;3578858;40;20086;-78
2021/08/01 05:03:39;;;;;;;5.40;3.13;;;;;;;18.32;41.09;100517.06;3574627;40;20045;-78
2021/08/01 05:06:10;;;;;;;6.78;3.92;;;;;;;18.35;41.59;100525.00;3571769;40;20058;-78
2021/08/01 05:08:38;;;;;;;6.20;3.80;;;;;;;18.29;41.22;100520.22;3576357;40;20056;-79
2021/08/01 05:11:06;;;;;;;5.97;3.50;;;;;;;18.27;41.17;100533.41;3586384;40;20033;-78
2021/08/01 05:13:35;;;;;;;5.88;3.95;;;;;;;18.25;41.14;100536.38;3578627;39;20061;-78
2021/08/01 05:16:03;;;;;;;6.32;4.07;;;;;;;18.24;41.83;100537.41;3579639;40;20061;-79
2021/08/01 05:18:31;;;;;;;7.15;4.10;;;;;;;18.23;41.87;100532.94;3576602;39;20052;-78
2021/08/01 05:20:59;;;;;;;7.32;4.30;;;;;;;18.22;41.90;100539.50;3579557;40;20122;-84
2021/08/01 05:23:28;;;;;;;6.38;4.03;;;;;;;18.22;41.53;100533.09;3573410;40;20051;-77
2021/08/01 05:25:57;;;;;;;6.03;4.03;;;;;;;18.19;42.01;100534.38;3578002;40;20056;-81
2021/08/01 05:28:25;;;;;;;6.18;3.80;;;;;;;18.19;41.79;100539.91;3577948;40;20058;-79
2021/08/01 05:30:53;;;;;;;6.22;3.70;;;;;;;18.18;41.36;100540.09;3572570;40;20449;-78
2021/08/01 05:33:21;;;;;;;6.55;3.97;;;;;;;18.18;41.49;100531.78;3578967;40;20049;-78
2021/08/01 05:35:49;;;;;;;6.15;4.13;;;;;;;18.17;42.03;100539.22;3579366;40;20047;-79
2021/08/01 05:38:17;;;;;;;5.13;3.70;;;;;;;18.17;41.52;100539.22;3579073;40;20092;-78
2021/08/01 05:40:46;;;;;;;6.28;3.90;;;;;;;18.17;41.43;100533.69;3576384;40;20049;-78
2021/08/01 05:43:14;;;;;;;5.60;4.07;;;;;;;18.15;41.43;100532.16;3577709;40;20092;-79
2021/08/01 05:45:44;;;;;;;7.97;4.05;;;;;;;18.16;41.67;100539.41;3576767;40;20313;-78
2021/08/01 05:48:12;;;;;;;6.25;3.47;;;;;;;18.12;42.13;100530.63;3577887;40;20085;-79
2021/08/01 05:50:40;;;;;;;5.93;3.47;;;;;;;18.12;42.18;100536.16;3579394;40;20061;-79
2021/08/01 05:53:08;;;;;;;5.55;3.35;;;;;;;18.12;41.82;100538.06;3576208;40;20122;-78
2021/08/01 05:55:36;;;;;;;3.90;2.92;;;;;;;18.13;42.00;100535.09;3575371;40;20336;-78
2021/08/01 05:58:05;;;;;;;6.00;3.58;;;;;;;18.18;42.35;100529.03;3577511;39;20035;-78
2021/08/01 06:00:34;;;;;;;5.97;3.33;;;;;;;18.21;42.94;100540.56;3579002;40;20106;-79
2021/08/01 06:03:02;;;;;;;6.53;3.08;;;;;;;18.26;43.12;100537.22;3577209;40;20041;-79
2021/08/01 06:05:30;;;;;;;5.35;3.17;;;;;;;18.34;43.01;100540.78;3573117;40;20410;-78
2021/08/01 06:07:58;;;;;;;5.70;2.90;;;;;;;18.41;42.52;100535.31;3575661;40;20040;-80
2021/08/01 06:10:26;;;;;;;6.35;2.47;;;;;;;18.49;43.27;100534.34;3577633;40;20056;-80
2021/08/01 06:12:54;;;;;;;4.65;2.70;;;;;;;18.58;43.12;100535.97;3577706;40;20433;-79
2021/08/01 06:15:23;;;;;;;3.80;2.47;;;;;;;18.69;42.89;100525.25;3578618;40;20066;-78
2021/08/01 06:17:51;;;;;;;5.32;2.70;;;;;;;18.79;42.47;100531.38;3577392;40;20301;-78
2021/08/01 06:20:19;;;;;;;7.38;3.20;;;;;;;18.89;42.80;100531.06;3578577;40;20053;-78
2021/08/01 06:22:48;;;;;;;4.88;2.40;;;;;;;18.98;42.74;100524.38;3576454;40;20092;-77
2021/08/01 06:25:16;;;;;;;4.07;2.13;;;;;;;19.09;42.28;100528.56;3578314;40;20806;-80
2021/08/01 06:27:43;;;;;;;5.82;2.75;;;;;;;19.18;42.72;100521.84;3578300;40;20295;-80
2021/08/01 06:30:13;;;;;;;2.95;2.00;;;;;;;19.29;42.61;100524.06;3579250;40;20368;-79
2021/08/01 06:32:43;;;;;;;6.40;2.10;;;;;;;19.42;42.42;100528.91;3578562;40;20080;-79
2021/08/01 06:35:11;;;;;;;5.28;2.42;;;;;;;19.49;41.88;100527.91;3572167;40;20046;-79
2021/08/01 06:37:39;;;;;;;6.13;2.40;;;;;;;19.61;41.55;100524.59;3589791;39;20044;-78
2021/08/01 06:40:08;;;;;;;4.53;2.00;;;;;;;19.72;41.53;100532.41;3579186;40;20126;-79
2021/08/01 06:42:36;;;;;;;3.70;2.20;;;;;;;19.81;41.98;100525.66;3578805;39;20130;-80
2021/08/01 06:45:05;;;;;;;5.53;2.42;;;;;;;19.91;41.83;100524.25;3587066;40;20079;-80
2021/08/01 06:47:33;;;;;;;4.82;2.28;;;;;;;20.03;41.38;100526.44;3571547;39;20049;-81
2021/08/01 06:50:03;;;;;;;4.78;2.17;;;;;;;20.17;41.15;100531.06;3578532;40;20483;-79
2021/08/01 06:52:38;;;;;;;5.03;2.00;;;;;;;20.26;41.48;100522.38;3578830;40;20053;-79
2021/08/01 06:55:08;;;;;;;3.88;2.08;;;;;;;20.40;41.20;100523.34;3578862;40;20089;-79
2021/08/01 06:57:36;;;;;;;5.63;2.10;;;;;;;20.52;40.75;100526.38;3578279;40;20051;-78
2021/08/01 07:00:06;;;;;;;4.50;1.85;;;;;;;20.65;40.65;100523.69;3576392;40;20172;-79
2021/08/01 07:02:34;;;;;;;5.07;2.17;;;;;;;20.77;40.53;100523.91;3577293;40;20044;-78
2021/08/01 07:05:05;;;;;;;3.75;1.90;;;;;;;20.92;40.31;100519.09;3574140;40;20325;-79
2021/08/01 07:07:33;;;;;;;4.45;1.92;;;;;;;21.02;39.91;100520.41;3576852;40;20053;-79
2021/08/01 07:10:02;;;;;;;3.42;1.70;;;;;;;21.14;40.14;100530.94;3577526;40;20033;-76
2021/08/01 07:12:30;;;;;;;4.47;2.20;;;;;;;21.25;39.58;100531.19;3575110;40;20131;-73
2021/08/01 07:14:58;;;;;;;4.30;2.00;;;;;;;21.37;39.66;100525.88;3573323;40;20089;-73
2021/08/01 07:17:26;;;;;;;4.28;1.83;;;;;;;21.47;39.56;100531.88;3573546;40;20085;-73
2021/08/01 07:19:54;;;;;;;5.55;1.80;;;;;;;21.58;39.09;100534.03;3575585;40;20102;-74
2021/08/01 07:22:23;;;;;;;4.60;1.80;;;;;;;21.69;38.59;100538.13;3574215;40;20123;-73
2021/08/01 07:24:51;;;;;;;5.65;2.30;;;;;;;21.76;38.72;100542.63;3573835;40;20056;-74
2021/08/01 07:27:20;;;;;;;4.30;1.88;;;;;;;21.85;38.83;100539.63;3572444;39;20048;-74
2021/08/01 07:29:48;;;;;;;6.07;2.20;;;;;;;21.93;38.50;100536.63;3575843;40;20070;-76
2021/08/01 07:32:16;;;;;;;5.20;1.95;;;;;;;22.01;38.61;100539.19;3573175;40;20045;-76
2021/08/01 07:34:44;;;;;;;5.30;2.05;;;;;;;22.08;38.25;100535.34;3576243;40;20051;-77
2021/08/01 07:37:12;;;;;;;3.95;1.92;;;;;;;22.15;38.45;100543.69;3571378;39;20061;-77
2021/08/01 07:39:43;;;;;;;3.13;1.77;;;;;;;22.24;37.66;100536.84;3575464;40;20499;-76
2021/08/01 07:42:12;;;;;;;3.28;1.70;;;;;;;22.27;37.50;100533.63;3576153;40;20037;-76
2021/08/01 07:44:47;;;;;;;4.25;1.95;;;;;;;22.32;37.11;100538.53;3575229;40;20059;-76
2021/08/01 07:47:17;;;;;;;4.53;1.98;;;;;;;22.36;37.00;100534.25;3575999;39;20061;-76
2021/08/01 07:49:48;;;;;;;3.65;1.85;;;;;;;22.37;37.04;100535.97;3576830;40;20051;-76
2021/08/01 07:52:16;;;;;;;3.25;1.83;;;;;;;22.36;36.96;100539.84;3569043;40;20052;-76
2021/08/01 07:54:46;;;;;;;5.18;2.00;;;;;;;22.38;36.33;100538.56;3568415;40;20519;-76
2021/08/01 07:57:24;;;;;;;4.10;2.03;;;;;;;22.38;36.08;100538.56;3574982;40;20055;-76
2021/08/01 07:59:52;;;;;;;4.60;1.90;;;;;;;22.34;36.29;100540.06;3573943;40;20093;-76
2021/08/01 08:02:21;;;;;;;4.25;1.88;;;;;;;22.34;36.35;100544.75;3571732;40;20064;-76
2021/08/01 08:04:50;;;;;;;3.72;2.33;;;;;;;22.33;35.77;100551.41;3574261;40;20445;-76
2021/08/01 08:07:18;;;;;;;4.82;2.30;;;;;;;22.29;36.10;100547.34;3575438;40;20053;-78
2021/08/01 08:09:49;;;;;;;4.63;2.00;;;;;;;22.28;35.90;100560.44;3578274;40;20076;-76
2021/08/01 08:12:18;;;;;;;4.55;2.15;;;;;;;22.19;35.53;100562.56;3574757;39;20048;-76
2021/08/01 08:14:46;;;;;;;4.38;2.10;;;;;;;22.13;35.69;100557.84;3575512;40;20049;-76
2021/08/01 08:17:14;;;;;;;4.20;2.20;;;;;;;22.08;35.69;100553.97;3576005;40;20049;-76
2021/08/01 08:19:42;;;;;;;3.20;2.08;;;;;;;22.03;35.68;100562.13;3577296;40;20296;-75
2021/08/01 08:22:11;;;;;;;5.15;2.00;;;;;;;22.02;35.75;100571.56;3573318;40;20142;-76
2021/08/01 08:24:39;;;;;;;4.88;2.30;;;;;;;21.98;35.84;100564.72;3571237;40;20048;-76
2021/08/01 08:27:09;;;;;;;5.10;2.25;;;;;;;21.97;35.78;100563.00;3571712;39;20044;-74
2021/08/01 08:29:37;;;;;;;3.47;2.38;;;;;;;21.93;35.94;100557.00;3575798;40;20064;-74
2021/08/01 08:32:05;;;;;;;4.53;2.25;;;;;;;21.93;35.37;100564.47;3574366;40;20166;-74
2021/08/01 08:34:34;;;;;;;5.15;2.47;;;;;;;21.88;35.74;100575.41;3582107;40;20059;-75
2021/08/01 08:37:02;;;;;;;5.30;2.30;;;;;;;21.83;35.69;100564.91;3576381;40;20061;-76
2021/08/01 08:39:33;;;;;;;3.45;2.17;;;;;;;21.80;35.00;100566.22;3576604;40;20052;-76
2021/08/01 08:42:02;;;;;;;3.88;2.10;;;;;;;21.70;35.31;100562.97;3570059;40;20388;-78
2021/08/01 08:44:31;;;;;;;4.20;2.00;;;;;;;21.66;35.71;100571.94;3571144;40;20131;-76
2021/08/01 08:46:59;;;;;;;4.50;2.38;;;;;;;21.57;35.64;100571.31;3570348;40;20131;-75
2021/08/01 08:49:30;;;;;;;4.90;2.38;;;;;;;21.55;35.75;100578.13;3577800;40;20064;-75
2021/08/01 08:51:59;;;;;;;4.15;2.20;;;;;;;21.47;35.10;100576.41;3574638;40;20055;-76
2021/08/01 08:54:35;;;;;;;5.68;2.65;;;;;;;21.44;35.37;100583.25;3572575;40;20329;-74
2021/08/01 08:57:11;;;;;;;4.07;2.30;;;;;;;21.38;35.42;100580.44;3570838;40;20057;-75
2021/08/01 08:59:41;;;;;;;4.28;2.40;;;;;;;21.30;35.58;100592.63;3569452;40;20050;-75
2021/08/01 09:02:13;;;;;;;5.20;2.65;;;;;;;21.25;35.51;100591.53;3573502;40;20101;-75
2021/08/01 09:04:43;;;;;;;4.20;2.33;;;;;;;21.17;35.50;100583.34;3573230;40;20049;-74
2021/08/01 09:07:11;;;;;;;4.25;2.38;;;;;;;21.10;35.53;100588.91;3574906;40;20206;-74
2021/08/01 09:09:39;;;;;;;3.50;2.30;;;;;;;21.05;35.84;100594.25;3575375;40;20057;-74
2021/08/01 09:12:08;;;;;;;4.47;2.40;;;;;;;21.01;35.78;100604.91;3571368;40;20050;-73
2021/08/01 09:14:36;;;;;;;5.55;2.67;;;;;;;20.96;36.08;100599.13;3573997;40;20092;-73
2021/08/01 09:17:06;;;;;;;4.18;2.10;;;;;;;20.95;36.09;100605.75;3574383;39;20049;-73
2021/08/01 09:19:36;;;;;;;5.60;2.38;;;;;;;20.92;35.69;100605.28;3575735;40;20134;-73
2021/08/01 09:22:16;;;;;;;5.72;2.65;;;;;;;20.92;36.11;100595.03;3575967;40;20060;-73
2021/08/01 09:24:46;;;;;;;4.03;2.17;;;;;;;20.91;36.11;100604.44;3574581;40;20060;-73
2021/08/01 09:27:32;;;;;;;5.13;2.15;;;;;;;20.93;35.57;100601.44;3576822;40;20056;-73
2021/08/01 09:30:02;;;;;;;4.00;2.03;;;;;;;20.92;35.82;100606.16;3573561;40;20077;-73
2021/08/01 09:32:45;;;;;;;4.60;2.35;;;;;;;20.97;35.91;100611.09;3573056;40;20041;-74
2021/08/01 09:35:17;;;;;;;6.28;2.28;;;;;;;20.98;35.81;100619.25;3575339;40;20052;-73
2021/08/01 09:37:55;;;;;;;4.78;2.58;;;;;;;20.99;35.62;100620.09;3574806;40;20073;-73
2021/08/01 09:40:29;;;;;;;4.65;2.28;;;;;;;21.00;35.73;100616.25;3574541;40;20071;-73
2021/08/01 09:43:07;;;;;;;3.30;2.20;;;;;;;21.02;35.95;100619.69;3575639;40;20113;-73
2021/08/01 09:45:35;;;;;;;4.35;2.20;;;;;;;21.00;35.56;100613.47;3574193;40;20419;-72
2021/08/01 09:48:19;;;;;;;5.63;1.90;;;;;;;21.00;35.67;100611.53;3573478;39;20057;-73
2021/08/01 09:51:01;;;;;;;3.85;1.98;;;;;;;20.99;35.55;100620.97;3578030;40;20121;-78
2021/08/01 09:53:30;;;;;;;4.60;2.17;;;;;;;20.94;35.57;100626.28;3574007;40;20055;-75
2021/08/01 09:56:15;;;;;;;4.05;2.20;;;;;;;20.98;35.13;100623.94;3575845;40;20064;-74
2021/08/01 09:58:45;;;;;;;2.80;1.70;;;;;;;20.96;35.29;100620.50;3574989;40;20049;-74
2021/08/01 10:01:13;;;;;;;3.28;1.88;;;;;;;20.91;35.28;100620.28;3573867;40;20045;-73
2021/08/01 10:03:44;;;;;;;3.55;2.05;;;;;;;20.91;35.73;100614.72;3577046;39;20426;-74
2021/08/01 10:06:14;;;;;;;4.40;2.08;;;;;;;20.90;35.81;100615.78;3576026;40;20052;-73
2021/08/01 10:08:51;;;;;;;3.83;2.08;;;;;;;20.91;35.75;100610.00;3575131;40;20041;-74
2021/08/01 10:11:21;;;;;;;3.40;1.80;;;;;;;20.90;35.41;100613.00;3575662;40;20616;-73
2021/08/01 10:13:51;;;;;;;3.70;2.03;;;;;;;20.93;35.54;100613.44;3575328;39;20297;-73
2021/08/01 10:16:19;;;;;;;3.78;1.90;;;;;;;20.95;36.15;100610.44;3574209;40;20041;-74
2021/08/01 10:18:51;;;;;;;3.08;1.90;;;;;;;21.00;35.33;100603.19;3574098;39;20033;-73
2021/08/01 10:21:21;;;;;;;4.72;2.15;;;;;;;21.02;35.80;100608.56;3577126;40;20471;-73
2021/08/01 10:23:54;;;;;;;4.70;2.20;;;;;;;21.08;36.02;100604.94;3571987;40;20056;-74
2021/08/01 10:26:27;;;;;;;3.17;1.92;;;;;;;21.13;35.74;100604.31;3572755;40;20055;-74
2021/08/01 10:28:58;;;;;;;3.88;2.22;;;;;;;21.14;36.02;100601.34;3571309;40;20041;-74
2021/08/01 10:31:31;;;;;;;4.07;2.10;;;;;;;21.20;35.89;100603.28;3571479;40;20060;-74
2021/08/01 10:34:10;;;;;;;3.47;2.08;;;;;;;21.25;35.57;100605.44;3573219;40;20025;-73
2021/08/01 10:36:44;;;;;;;4.03;2.03;;;;;;;21.25;35.52;100603.50;3569915;40;20057;-72
2021/08/01 10:39:13;;;;;;;4.03;2.25;;;;;;;21.30;36.13;100600.13;3567855;40;20041;-72
2021/08/01 10:41:42;;;;;;;3.33;2.10;;;;;;;21.35;35.59;100606.75;3568435;40;20053;-72
2021/08/01 10:44:12;;;;;;;3.42;2.38;;;;;;;21.40;35.56;100603.38;3574719;40;20041;-72
2021/08/01 10:46:41;;;;;;;5.32;2.55;;;;;;;21.45;35.40;100607.22;3573801;40;20041;-72
2021/08/01 10:49:12;;;;;;;4.22;2.42;;;;;;;21.52;35.28;100604.44;3575558;40;20045;-73
2021/08/01 10:51:41;;;;;;;4.18;2.15;;;;;;;21.54;35.31;100598.69;3573384;40;20084;-73
2021/08/01 10:54:30;;;;;;;4.18;2.15;;;;;;;21.59;35.56;100599.78;3580326;40;20084;-74
2021/08/01 10:57:15;;;;;;;4.15;2.20;;;;;;;21.63;35.65;100603.03;3575947;40;20130;-74
2021/08/01 11:00:07;;;;;;;3.92;2.00;;;;;;;21.67;35.54;100598.72;3573610;40;20067;-72
2021/08/01 11:02:36;;;;;;;3.70;2.03;;;;;;;21.71;35.18;100595.31;3575034;40;20029;-72
2021/08/01 11:05:37;;;;;;;4.00;2.20;;;;;;;21.79;35.21;100585.91;3569115;40;20053;-74
2021/08/01 11:08:07;;;;;;;4.13;2.38;;;;;;;21.84;34.86;100588.91;3573453;40;20111;-73
2021/08/01 11:10:59;;;;;;;3.65;2.10;;;;;;;21.88;35.02;100581.84;3575594;40;20063;-73
2021/08/01 11:13:44;;;;;;;2.90;2.20;;;;;;;21.94;34.94;100589.34;3578156;40;20037;-73
2021/08/01 11:16:15;;;;;;;3.63;1.90;;;;;;;22.02;34.88;100582.69;3570830;40;20765;-73
2021/08/01 11:18:45;;;;;;;4.05;2.20;;;;;;;22.07;34.80;100580.97;3574877;40;20045;-74
2021/08/01 11:21:16;;;;;;;2.88;1.88;;;;;;;22.14;34.92;100581.00;3577238;40;20631;-73
2021/08/01 11:24:17;;;;;;;3.40;2.25;;;;;;;22.12;34.92;100583.13;3572272;40;20044;-74
2021/08/01 11:27:11;;;;;;;3.42;2.10;;;;;;;22.23;34.57;100584.47;3557096;40;20029;-72
2021/08/01 11:30:02;;;;;;;4.70;2.30;;;;;;;22.32;34.46;100588.69;3576414;40;20045;-81
2021/08/01 11:32:45;;;;;;;3.58;2.40;;;;;;;22.40;34.83;100594.06;3571616;39;20037;-73
2021/08/01 11:35:17;;;;;;;4.50;2.50;;;;;;;22.48;34.06;100586.31;3572202;40;20056;-74
2021/08/01 11:37:46;;;;;;;;;;;;;;;22.24;35.63;100581.44;3575938;40;20126;-74
2021/08/01 11:40:14;;;;;;;4.60;2.20;;;;;;;22.55;34.51;100587.19;3575839;40;19949;-75
2021/08/01 11:42:43;;;;;;;3.67;2.47;;;;;;;22.65;33.96;100580.28;3575288;40;20047;-72
2021/08/01 11:45:14;;;;;;;4.63;2.25;;;;;;;22.68;33.84;100582.63;3570467;40;20106;-71
2021/08/01 11:47:49;;;;;;;3.83;1.77;;;;;;;22.74;33.63;100582.63;3576499;40;20124;-70